Time,TemperatureF,DewpointF,PressureIn,WindDirection,WindDirectionDegrees,WindSpeedMPH,WindSpeedGustMPH,Humidity,HourlyPrecipIn,Conditions,Clouds,dailyrainin,SolarRadiationWatts/m^2,SoftwareType,DateUTC
2013-08-17 00:03:00,56.0,53.0,-100.00,ESE,117,8.0,18.0,90,0.00,,,0.00,0.000000,,2013-08-17 04:03:00,
2013-08-17 00:44:00,55.0,52.0,-100.00,ESE,114,8.0,15.0,88,0.00,,,0.00,0.000000,,2013-08-17 04:44:00,
2013-08-17 00:53:00,55.0,52.0,-100.00,ESE,114,8.0,15.0,88,0.00,,,0.00,0.000000,,2013-08-17 04:53:00,
2013-08-17 01:03:00,55.0,52.0,-100.00,ESE,114,8.0,15.0,88,0.00,,,0.00,0.000000,,2013-08-17 05:03:00,
2013-08-17 01:42:00,54.0,52.0,-100.00,ESE,111,7.0,14.0,92,0.00,,,0.00,0.000000,,2013-08-17 05:42:00,
2013-08-17 01:52:00,54.0,52.0,-100.00,ESE,111,7.0,14.0,92,0.00,,,0.00,0.000000,,2013-08-17 05:52:00,
2013-08-17 02:01:00,54.0,52.0,-100.00,ESE,111,7.0,14.0,92,0.00,,,0.00,0.000000,,2013-08-17 06:01:00,
2013-08-17 02:42:00,54.0,51.0,-100.00,East,100,8.0,16.0,90,0.00,,,0.00,0.000000,,2013-08-17 06:42:00,
2013-08-17 02:52:00,54.0,51.0,-100.00,East,100,8.0,16.0,90,0.00,,,0.00,0.000000,,2013-08-17 06:52:00,
2013-08-17 03:01:00,54.0,51.0,-100.00,East,100,8.0,16.0,90,0.00,,,0.00,0.000000,,2013-08-17 07:01:00,
2013-08-17 03:42:00,54.0,51.0,-100.00,ESE,110,6.0,14.0,89,0.00,,,0.00,0.000000,,2013-08-17 07:42:00,
2013-08-17 03:52:00,54.0,51.0,-100.00,ESE,110,6.0,14.0,89,0.00,,,0.00,0.000000,,2013-08-17 07:52:00,
2013-08-17 04:02:00,54.0,51.0,-100.00,ESE,110,6.0,14.0,89,0.00,,,0.00,0.000000,,2013-08-17 08:02:00,
2013-08-17 04:42:00,53.0,51.0,-100.00,East,92,9.0,15.0,92,0.00,,,0.00,0.000000,,2013-08-17 08:42:00,
2013-08-17 04:52:00,53.0,51.0,-100.00,East,92,9.0,15.0,92,0.00,,,0.00,0.000000,,2013-08-17 08:52:00,
2013-08-17 05:02:00,53.0,51.0,-100.00,East,92,9.0,15.0,92,0.00,,,0.00,0.000000,,2013-08-17 09:02:00,
2013-08-17 05:43:00,53.0,51.0,-100.00,SSW,203,0.0,15.0,94,0.00,,,0.00,0.000000,,2013-08-17 09:43:00,
2013-08-17 05:53:00,53.0,51.0,-100.00,SSW,203,0.0,15.0,94,0.00,,,0.00,0.000000,,2013-08-17 09:53:00,
2013-08-17 06:03:00,53.0,51.0,-100.00,SSW,203,0.0,15.0,94,0.00,,,0.00,0.000000,,2013-08-17 10:03:00,
2013-08-17 06:42:00,53.0,52.0,-100.00,NNW,333,1.0,3.0,97,0.00,,,0.00,0.000000,,2013-08-17 10:42:00,
2013-08-17 06:53:00,53.0,52.0,-100.00,NNW,333,1.0,3.0,97,0.00,,,0.00,0.000000,,2013-08-17 10:53:00,
2013-08-17 07:02:00,53.0,52.0,-100.00,NNW,333,1.0,3.0,97,0.00,,,0.00,0.000000,,2013-08-17 11:02:00,
2013-08-17 07:42:00,54.0,51.0,-100.00,NNE,23,2.0,11.0,91,0.00,,,0.00,1.000000,,2013-08-17 11:42:00,
2013-08-17 07:52:00,54.0,51.0,-100.00,NNE,23,2.0,11.0,91,0.00,,,0.00,1.000000,,2013-08-17 11:52:00,
2013-08-17 08:01:00,54.0,51.0,-100.00,NNE,23,2.0,11.0,91,0.00,,,0.00,1.000000,,2013-08-17 12:01:00,
2013-08-17 08:42:00,57.0,53.0,-100.00,South,169,2.0,9.0,87,0.00,,,0.00,34.000000,,2013-08-17 12:42:00,
2013-08-17 08:52:00,57.0,53.0,-100.00,South,169,2.0,9.0,87,0.00,,,0.00,34.000000,,2013-08-17 12:52:00,
2013-08-17 09:02:00,57.0,53.0,-100.00,South,169,2.0,9.0,87,0.00,,,0.00,34.000000,,2013-08-17 13:02:00,
2013-08-17 09:42:00,58.0,54.0,-100.00,SE,144,3.0,14.0,85,0.00,,,0.00,74.000000,,2013-08-17 13:42:00,
2013-08-17 09:52:00,58.0,54.0,-100.00,SE,144,3.0,14.0,85,0.00,,,0.00,74.000000,,2013-08-17 13:52:00,
2013-08-17 10:01:00,58.0,54.0,-100.00,SE,144,3.0,14.0,85,0.00,,,0.00,74.000000,,2013-08-17 14:01:00,
2013-08-17 10:42:00,63.0,56.0,-100.00,East,101,6.0,12.0,78,0.00,,,0.00,262.000000,,2013-08-17 14:42:00,
2013-08-17 10:52:00,63.0,56.0,-100.00,East,101,6.0,12.0,78,0.00,,,0.00,262.000000,,2013-08-17 14:52:00,
2013-08-17 11:01:00,63.0,56.0,-100.00,East,101,6.0,12.0,78,0.00,,,0.00,262.000000,,2013-08-17 15:01:00,
2013-08-17 11:44:00,65.0,58.0,-100.00,SSE,153,2.0,11.0,79,0.00,,,0.00,363.000000,,2013-08-17 15:44:00,
2013-08-17 11:54:00,65.0,58.0,-100.00,SSE,153,2.0,11.0,79,0.00,,,0.00,363.000000,,2013-08-17 15:54:00,
2013-08-17 12:03:00,65.0,58.0,-100.00,SSE,153,2.0,11.0,79,0.00,,,0.00,363.000000,,2013-08-17 16:03:00,
2013-08-17 12:42:00,63.0,57.0,-100.00,SSE,148,4.0,9.0,82,0.00,,,0.00,285.000000,,2013-08-17 16:42:00,
2013-08-17 12:53:00,63.0,57.0,-100.00,SSE,148,4.0,9.0,82,0.00,,,0.00,285.000000,,2013-08-17 16:53:00,
2013-08-17 13:02:00,63.0,57.0,-100.00,SSE,148,4.0,9.0,82,0.00,,,0.00,285.000000,,2013-08-17 17:02:00,
2013-08-17 13:42:00,65.0,59.0,-100.00,ESE,103,4.0,9.0,82,0.00,,,0.00,354.000000,,2013-08-17 17:42:00,
2013-08-17 13:52:00,65.0,59.0,-100.00,ESE,103,4.0,9.0,82,0.00,,,0.00,354.000000,,2013-08-17 17:52:00,
2013-08-17 14:02:00,65.0,59.0,-100.00,ESE,103,4.0,9.0,82,0.00,,,0.00,354.000000,,2013-08-17 18:02:00,
2013-08-17 14:42:00,62.0,58.0,-100.00,SE,140,5.0,11.0,86,0.00,,,0.00,272.000000,,2013-08-17 18:42:00,
2013-08-17 14:52:00,62.0,58.0,-100.00,SE,140,5.0,11.0,86,0.00,,,0.00,272.000000,,2013-08-17 18:52:00,
2013-08-17 15:02:00,62.0,58.0,-100.00,SE,140,5.0,11.0,86,0.00,,,0.00,272.000000,,2013-08-17 19:02:00,
2013-08-17 15:42:00,61.0,59.0,-100.00,SE,124,5.0,12.0,93,0.00,,,0.00,173.000000,,2013-08-17 19:42:00,
2013-08-17 15:52:00,61.0,59.0,-100.00,SE,124,5.0,12.0,93,0.00,,,0.00,173.000000,,2013-08-17 19:52:00,
2013-08-17 16:02:00,61.0,59.0,-100.00,SE,124,5.0,12.0,93,0.00,,,0.00,173.000000,,2013-08-17 20:02:00,
2013-08-17 16:42:00,61.0,60.0,-100.00,SE,137,5.0,12.0,96,0.00,,,0.00,187.000000,,2013-08-17 20:42:00,
2013-08-17 16:52:00,61.0,60.0,-100.00,SE,137,5.0,12.0,96,0.00,,,0.00,187.000000,,2013-08-17 20:52:00,
2013-08-17 17:01:00,61.0,60.0,-100.00,SE,137,5.0,12.0,96,0.00,,,0.00,187.000000,,2013-08-17 21:01:00,
2013-08-17 17:42:00,60.0,59.0,-100.00,SE,137,6.0,14.0,97,0.01,,,0.01,131.000000,,2013-08-17 21:42:00,
2013-08-17 17:54:00,60.0,59.0,-100.00,SE,137,6.0,14.0,97,0.01,,,0.01,131.000000,,2013-08-17 21:54:00,
2013-08-17 18:03:00,60.0,59.0,-100.00,SE,137,6.0,14.0,97,0.01,,,0.01,131.000000,,2013-08-17 22:03:00,
2013-08-17 18:42:00,59.0,59.0,-100.00,SE,140,5.0,13.0,99,0.06,,,0.07,57.000000,,2013-08-17 22:42:00,
2013-08-17 18:52:00,59.0,59.0,-100.00,SE,140,5.0,13.0,99,0.06,,,0.07,57.000000,,2013-08-17 22:52:00,
2013-08-17 19:02:00,59.0,59.0,-100.00,SE,140,5.0,13.0,99,0.06,,,0.07,57.000000,,2013-08-17 23:02:00,
2013-08-17 19:42:00,59.0,59.0,-100.00,SE,139,5.0,12.0,100,0.01,,,0.08,30.000000,,2013-08-17 23:42:00,
2013-08-17 19:52:00,59.0,59.0,-100.00,SE,139,5.0,12.0,100,0.01,,,0.08,30.000000,,2013-08-17 23:52:00,
2013-08-17 20:01:00,59.0,59.0,-100.00,SE,139,5.0,12.0,100,0.01,,,0.08,30.000000,,2013-08-18 00:01:00,
2013-08-17 20:42:00,58.0,58.0,-100.00,SE,146,4.0,10.0,100,0.01,,,0.09,9.000000,,2013-08-18 00:42:00,
2013-08-17 20:52:00,58.0,58.0,-100.00,SE,146,4.0,10.0,100,0.01,,,0.09,9.000000,,2013-08-18 00:52:00,
2013-08-17 21:01:00,58.0,58.0,-100.00,SE,146,4.0,10.0,100,0.01,,,0.09,9.000000,,2013-08-18 01:01:00,
2013-08-17 21:42:00,58.0,58.0,-100.00,SSE,152,4.0,10.0,100,0.03,,,0.12,0.000000,,2013-08-18 01:42:00,
2013-08-17 21:52:00,58.0,58.0,-100.00,SSE,152,4.0,10.0,100,0.03,,,0.12,0.000000,,2013-08-18 01:52:00,
2013-08-17 22:02:00,58.0,58.0,-100.00,SSE,152,4.0,10.0,100,0.03,,,0.12,0.000000,,2013-08-18 02:02:00,
2013-08-17 22:42:00,58.0,58.0,-100.00,SSE,162,2.0,7.0,100,0.02,,,0.14,0.000000,,2013-08-18 02:42:00,
2013-08-17 22:52:00,58.0,58.0,-100.00,SSE,162,2.0,7.0,100,0.02,,,0.14,0.000000,,2013-08-18 02:52:00,
2013-08-17 23:02:00,58.0,58.0,-100.00,SSE,162,2.0,7.0,100,0.02,,,0.14,0.000000,,2013-08-18 03:02:00,
2013-08-17 23:43:00,58.0,58.0,-100.00,SSE,160,2.0,10.0,100,0.01,,,0.15,0.000000,,2013-08-18 03:43:00,
2013-08-17 23:53:00,58.0,58.0,-100.00,SSE,160,2.0,10.0,100,0.01,,,0.15,0.000000,,2013-08-18 03:53:00,